Time;durP1;ratioP1;P1;durP2;ratioP2;P2;SDS_P1;SDS_P2;PMS_P1;PMS_P2;Temp;Humidity;BMP_temperature;BMP_pressure;BME280_temperature;BME280_humidity;BME280_pressure;Samples;Min_cycle;Max_cycle;Signal;HPM_P1;HPM_P2
2022/10/17 00:01:53;;;;;;;53.85;29.45;;;;;;;12.30;100.00;101225.88;4935022;29;20037;-75
2022/10/17 00:04:18;;;;;;;58.00;30.25;;;;;;;12.32;100.00;101225.38;4919099;29;20453;-74
2022/10/17 00:06:46;;;;;;;45.13;28.52;;;;;;;12.34;100.00;101232.22;4934691;29;20404;-75
2022/10/17 00:09:11;;;;;;;43.50;28.33;;;;;;;12.35;100.00;101227.28;4935144;29;20023;-75
2022/10/17 00:11:37;;;;;;;47.95;29.77;;;;;;;12.30;100.00;101227.94;4935450;29;20511;-75
2022/10/17 00:14:02;;;;;;;45.50;28.98;;;;;;;12.29;100.00;101227.16;4935895;29;20019;-76
2022/10/17 00:16:35;;;;;;;42.15;28.13;;;;;;;12.22;100.00;101219.66;4938003;29;20027;-75
2022/10/17 00:19:00;;;;;;;49.45;29.65;;;;;;;12.25;100.00;101230.19;4938141;29;20027;-77
2022/10/17 00:21:26;;;;;;;48.13;28.80;;;;;;;12.24;100.00;101230.66;4939137;29;20035;-75
2022/10/17 00:23:52;;;;;;;48.90;27.33;;;;;;;12.23;100.00;101226.19;4938149;29;20377;-75
2022/10/17 00:26:17;;;;;;;44.55;28.88;;;;;;;12.19;100.00;101229.25;4939149;29;20024;-75
2022/10/17 00:28:50;;;;;;;48.05;29.60;;;;;;;12.21;100.00;101235.28;4938940;29;20028;-75
2022/10/17 00:31:18;;;;;;;51.38;30.75;;;;;;;12.17;100.00;101234.66;4939403;29;20070;-76
2022/10/17 00:33:43;;;;;;;47.88;29.85;;;;;;;11.95;100.00;101204.63;4937780;29;20020;-76
2022/10/17 00:36:15;;;;;;;48.42;29.40;;;;;;;12.12;100.00;101237.38;4937952;29;20378;-76
2022/10/17 00:38:43;;;;;;;46.47;28.83;;;;;;;12.15;100.00;101247.88;4938226;29;20035;-77
2022/10/17 00:41:11;;;;;;;52.88;31.35;;;;;;;11.95;100.00;101224.69;4935277;29;20103;-78
2022/10/17 00:43:56;;;;;;;48.92;29.92;;;;;;;12.12;100.00;101249.63;4936523;29;20055;-76
2022/10/17 00:46:24;;;;;;;49.80;29.85;;;;;;;12.13;100.00;101256.94;4936008;29;20052;-77
2022/10/17 00:48:51;;;;;;;47.80;29.17;;;;;;;12.16;100.00;101252.31;4920364;29;20032;-77
2022/10/17 00:51:19;;;;;;;48.05;30.02;;;;;;;12.17;100.00;101254.72;4935443;29;20034;-76
2022/10/17 00:53:44;;;;;;;50.38;27.70;;;;;;;12.18;100.00;101256.31;4937648;29;20051;-76
2022/10/17 00:56:10;;;;;;;44.55;29.00;;;;;;;12.21;100.00;101248.81;4936105;29;20036;-75
2022/10/17 00:58:35;;;;;;;46.72;29.20;;;;;;;12.19;100.00;101245.63;4935730;29;20046;-76
2022/10/17 01:01:01;;;;;;;46.03;29.42;;;;;;;12.19;100.00;101255.03;4937507;29;20035;-76
2022/10/17 01:03:27;;;;;;;44.60;26.80;;;;;;;12.17;100.00;101248.19;4936270;29;20035;-76
2022/10/17 01:05:52;;;;;;;50.83;29.67;;;;;;;12.14;100.00;101247.09;4934887;29;20036;-75
2022/10/17 01:08:17;;;;;;;50.45;29.40;;;;;;;12.11;100.00;101238.66;4919437;29;20032;-76
2022/10/17 01:11:17;;;;;;;48.17;29.52;;;;;;;12.15;100.00;101250.75;4935535;29;20460;-77
2022/10/17 01:13:56;;;;;;;47.70;29.60;;;;;;;11.99;100.00;101231.03;4926018;29;20571;-79
2022/10/17 01:16:34;;;;;;;51.97;29.13;;;;;;;12.06;100.00;101245.03;4935434;29;20040;-77
2022/10/17 01:19:09;;;;;;;51.17;29.75;;;;;;;12.03;100.00;101243.91;4937034;29;20381;-76
2022/10/17 01:22:00;;;;;;;48.72;29.88;;;;;;;11.99;100.00;101251.88;4936864;29;20038;-76
2022/10/17 01:24:37;;;;;;;50.88;31.08;;;;;;;12.00;100.00;101250.63;4938171;29;20114;-77
2022/10/17 01:27:14;;;;;;;49.30;28.25;;;;;;;11.96;100.00;101249.19;4936565;29;20035;-76
2022/10/17 01:29:58;;;;;;;49.55;30.02;;;;;;;11.93;100.00;101241.53;4937943;29;20038;-77
2022/10/17 01:32:57;;;;;;;48.85;29.33;;;;;;;11.90;100.00;101249.03;4937827;29;20122;-77
2022/10/17 01:36:00;;;;;;;47.17;29.75;;;;;;;11.90;100.00;101248.25;4920597;29;20040;-77
2022/10/17 01:38:33;;;;;;;;;;;;;;;11.86;100.00;101251.28;4927393;29;20043;-77
2022/10/17 01:41:06;;;;;;;47.05;28.60;;;;;;;11.83;100.00;101264.47;4938929;29;19911;-75
2022/10/17 01:43:40;;;;;;;51.67;30.75;;;;;;;11.84;100.00;101257.47;4937717;29;20031;-77
2022/10/17 01:46:12;;;;;;;52.72;29.80;;;;;;;11.84;100.00;101254.63;4936403;29;20056;-76
2022/10/17 01:48:39;;;;;;;50.30;30.02;;;;;;;11.79;100.00;101258.13;4936812;29;20035;-79
2022/10/17 01:51:29;;;;;;;51.60;31.00;;;;;;;11.80;100.00;101261.78;4936311;29;20059;-75
2022/10/17 01:54:02;;;;;;;53.63;29.63;;;;;;;11.77;100.00;101260.66;4929233;29;20044;-76
2022/10/17 01:56:29;;;;;;;50.50;28.80;;;;;;;11.76;100.00;101252.56;4936277;29;20038;-76
2022/10/17 01:58:59;;;;;;;51.55;29.98;;;;;;;11.71;100.00;101251.13;4936182;29;20031;-77
2022/10/17 02:01:25;;;;;;;53.63;30.98;;;;;;;11.68;100.00;101249.19;4937264;29;20034;-76
2022/10/17 02:03:52;;;;;;;46.85;29.27;;;;;;;11.71;100.00;101256.84;4920182;29;20114;-75
2022/10/17 02:06:17;;;;;;;52.40;29.95;;;;;;;11.65;100.00;101243.66;4920213;29;20042;-78
2022/10/17 02:08:47;;;;;;;48.63;29.25;;;;;;;11.67;100.00;101241.09;4920042;29;20031;-76
2022/10/17 02:11:18;;;;;;;49.13;29.73;;;;;;;11.56;100.00;101233.00;4937319;29;20118;-75
2022/10/17 02:14:02;;;;;;;52.65;30.92;;;;;;;11.63;100.00;101246.97;4936155;29;20020;-76
2022/10/17 02:16:49;;;;;;;47.67;29.10;;;;;;;11.62;100.00;101236.78;4935790;29;20039;-77
2022/10/17 02:19:36;;;;;;;50.28;28.77;;;;;;;11.62;100.00;101238.84;4936924;29;20068;-76
2022/10/17 02:22:15;;;;;;;49.50;29.45;;;;;;;11.63;100.00;101234.72;4919818;29;20122;-75
2022/10/17 02:24:47;;;;;;;52.75;30.70;;;;;;;11.64;100.00;101239.97;4935683;29;20051;-77
2022/10/17 02:27:35;;;;;;;48.88;29.95;;;;;;;11.64;100.00;101244.91;4935760;29;20039;-78
2022/10/17 02:30:24;;;;;;;49.25;29.02;;;;;;;11.63;100.00;101244.13;4936653;29;20042;-76
2022/10/17 02:33:20;;;;;;;50.78;29.00;;;;;;;11.60;100.00;101242.22;4935447;29;20027;-76
2022/10/17 02:35:53;;;;;;;52.35;28.38;;;;;;;11.64;100.00;101257.16;4915094;29;20048;-77
2022/10/17 02:38:20;;;;;;;48.50;28.73;;;;;;;11.53;100.00;101242.53;4919763;29;20028;-77
2022/10/17 02:40:48;;;;;;;54.92;29.70;;;;;;;11.66;100.00;101262.41;4935799;29;20028;-76
2022/10/17 02:43:14;;;;;;;51.58;31.08;;;;;;;11.62;100.00;101265.41;4919495;29;20084;-75
2022/10/17 02:45:39;;;;;;;53.75;30.20;;;;;;;11.58;100.00;101264.00;4935114;29;20572;-76
2022/10/17 02:48:26;;;;;;;48.55;29.35;;;;;;;11.59;100.00;101269.25;4935301;29;20034;-77
2022/10/17 02:50:59;;;;;;;50.30;29.25;;;;;;;11.64;100.00;101273.53;4936784;29;20043;-75
2022/10/17 02:53:33;;;;;;;43.83;27.45;;;;;;;11.60;100.00;101270.84;4936619;29;20042;-76
2022/10/17 02:56:02;;;;;;;49.63;29.75;;;;;;;11.62;100.00;101284.66;4935383;29;20031;-76
2022/10/17 02:58:31;;;;;;;50.92;28.88;;;;;;;11.60;100.00;101281.50;4935117;29;20030;-77
2022/10/17 03:00:57;;;;;;;50.85;28.70;;;;;;;11.52;100.00;101278.13;4935359;29;20036;-75
2022/10/17 03:03:28;;;;;;;46.83;28.25;;;;;;;11.54;100.00;101281.34;4904194;29;20032;-76
2022/10/17 03:05:54;;;;;;;50.38;29.15;;;;;;;11.49;100.00;101279.09;4935176;29;20393;-76
2022/10/17 03:08:20;;;;;;;44.20;28.13;;;;;;;11.51;100.00;101287.22;4936563;29;20130;-76
2022/10/17 03:10:45;;;;;;;50.85;29.60;;;;;;;11.47;100.00;101283.72;4936281;29;20487;-76
2022/10/17 03:13:11;;;;;;;51.42;28.70;;;;;;;11.49;100.00;101290.56;4935319;29;20126;-76
2022/10/17 03:15:36;;;;;;;48.65;31.23;;;;;;;11.44;100.00;101285.44;4936163;29;20034;-76
2022/10/17 03:18:02;;;;;;;48.65;29.05;;;;;;;11.42;100.00;101285.13;4935217;29;20062;-75
2022/10/17 03:20:27;;;;;;;47.72;28.52;;;;;;;11.44;100.00;101294.03;4936734;29;20032;-76
2022/10/17 03:22:53;;;;;;;46.63;27.35;;;;;;;11.45;100.00;101289.13;4935699;29;20075;-76
2022/10/17 03:25:18;;;;;;;53.10;28.95;;;;;;;11.42;100.00;101284.34;4936173;29;20139;-76
2022/10/17 03:27:43;;;;;;;45.67;29.45;;;;;;;11.40;100.00;101293.41;4935824;29;20054;-76
2022/10/17 03:30:09;;;;;;;45.92;28.02;;;;;;;11.35;100.00;101291.97;4935543;29;20028;-75
2022/10/17 03:32:34;;;;;;;51.25;29.65;;;;;;;11.37;100.00;101288.59;4936481;29;20481;-75
2022/10/17 03:35:00;;;;;;;52.80;30.55;;;;;;;11.27;100.00;101284.94;4936055;29;20023;-76
2022/10/17 03:37:26;;;;;;;49.25;28.83;;;;;;;11.26;100.00;101291.16;4935021;29;20063;-76
2022/10/17 03:39:51;;;;;;;53.95;29.52;;;;;;;11.28;100.00;101303.69;4934887;29;20488;-75
2022/10/17 03:42:17;;;;;;;47.30;29.25;;;;;;;11.28;100.00;101302.91;4934814;29;20385;-77
2022/10/17 03:44:42;;;;;;;49.63;29.23;;;;;;;11.28;100.00;101305.75;4935886;29;20035;-76
2022/10/17 03:47:09;;;;;;;52.05;30.75;;;;;;;11.23;100.00;101300.66;4918710;29;20135;-77
2022/10/17 03:49:35;;;;;;;49.10;29.35;;;;;;;11.14;100.00;101304.31;4938817;29;20028;-76
2022/10/17 03:52:00;;;;;;;51.45;28.20;;;;;;;11.14;100.00;101303.50;4938780;29;20034;-75
2022/10/17 03:54:26;;;;;;;48.20;28.67;;;;;;;11.16;100.00;101309.56;4938570;29;20052;-76
2022/10/17 03:56:51;;;;;;;54.10;30.67;;;;;;;10.96;100.00;101282.16;4938479;29;20027;-77
2022/10/17 03:59:16;;;;;;;49.92;30.35;;;;;;;11.14;100.00;101312.88;4939806;29;20036;-76
2022/10/17 04:01:42;;;;;;;52.72;28.73;;;;;;;11.11;100.00;101313.00;4938572;29;20461;-76
2022/10/17 04:04:08;;;;;;;52.03;30.60;;;;;;;11.10;100.00;101312.22;4922213;29;20024;-76
2022/10/17 04:06:34;;;;;;;55.78;30.95;;;;;;;11.07;100.00;101315.22;4922793;29;20087;-75
2022/10/17 04:08:59;;;;;;;52.13;31.02;;;;;;;11.08;100.00;101313.94;4938597;29;20370;-75
2022/10/17 04:11:27;;;;;;;51.20;30.27;;;;;;;11.07;100.00;101323.81;4938478;29;20067;-76
2022/10/17 04:13:54;;;;;;;58.00;31.10;;;;;;;11.05;100.00;101323.47;4922274;29;20477;-74
2022/10/17 04:16:19;;;;;;;53.55;30.85;;;;;;;11.05;100.00;101326.34;4938145;29;20036;-76
2022/10/17 04:18:44;;;;;;;52.63;31.52;;;;;;;11.01;100.00;101319.97;4938381;29;20070;-76
2022/10/17 04:21:11;;;;;;;55.47;31.52;;;;;;;11.02;100.00;101318.72;4937999;29;20491;-76
2022/10/17 04:23:37;;;;;;;52.83;31.83;;;;;;;11.01;100.00;101319.97;4938009;29;20023;-75
2022/10/17 04:26:03;;;;;;;51.85;30.25;;;;;;;10.99;100.00;101321.22;4937545;29;20389;-76
2022/10/17 04:28:29;;;;;;;51.63;31.15;;;;;;;10.90;100.00;101309.75;4922118;29;20036;-76
2022/10/17 04:30:59;;;;;;;56.70;31.65;;;;;;;10.94;100.00;101318.19;4938979;29;20023;-76
2022/10/17 04:33:27;;;;;;;56.78;31.25;;;;;;;10.95;100.00;101328.38;4938879;29;20032;-76
2022/10/17 04:36:00;;;;;;;53.95;31.88;;;;;;;10.91;100.00;101319.16;4937895;29;20035;-77
2022/10/17 04:38:26;;;;;;;53.30;31.60;;;;;;;10.89;100.00;101313.09;4939066;29;20035;-76
2022/10/17 04:40:51;;;;;;;52.40;31.42;;;;;;;10.87;100.00;101321.34;4937245;29;20106;-75
2022/10/17 04:43:19;;;;;;;50.25;31.95;;;;;;;10.86;100.00;101329.13;4955679;29;20453;-75
2022/10/17 04:45:50;;;;;;;52.58;30.33;;;;;;;10.84;100.00;101328.78;4955832;29;20488;-76
2022/10/17 04:48:16;;;;;;;51.13;30.00;;;;;;;10.81;100.00;101315.44;4957400;28;20063;-75
2022/10/17 04:50:52;;;;;;;59.42;31.25;;;;;;;10.84;100.00;101323.06;4939177;29;20046;-74
2022/10/17 04:53:19;;;;;;;51.60;29.88;;;;;;;10.83;100.00;101330.06;4956776;29;20091;-75
2022/10/17 04:55:47;;;;;;;52.65;30.27;;;;;;;10.77;100.00;101322.59;4956653;29;20102;-76
2022/10/17 04:58:12;;;;;;;54.65;31.25;;;;;;;10.83;100.00;101320.69;4956537;29;20074;-77
2022/10/17 05:00:40;;;;;;;48.47;29.88;;;;;;;10.85;100.00;101329.59;4956284;28;20047;-78
2022/10/17 05:03:07;;;;;;;49.80;30.02;;;;;;;10.79;100.00;101320.84;4956472;29;20030;-79
2022/10/17 05:05:38;;;;;;;64.47;30.65;;;;;;;10.80;100.00;101322.44;4956320;29;20554;-77
2022/10/17 05:08:07;;;;;;;50.47;30.08;;;;;;;10.78;100.00;101327.00;4957621;28;20114;-79
2022/10/17 05:10:42;;;;;;;53.95;31.90;;;;;;;10.74;100.00;101330.03;4932990;29;20071;-79
2022/10/17 05:13:09;;;;;;;50.72;30.13;;;;;;;10.71;100.00;101335.88;4905147;29;20091;-79
2022/10/17 05:15:35;;;;;;;65.70;37.75;;;;;;;10.64;100.00;101327.56;4921030;29;20031;-77
2022/10/17 05:18:02;;;;;;;59.85;34.50;;;;;;;10.64;100.00;101336.94;4920619;29;20118;-79
2022/10/17 05:20:30;;;;;;;51.55;31.42;;;;;;;10.60;100.00;101322.00;4936786;29;20031;-81
2022/10/17 05:22:58;;;;;;;55.92;31.88;;;;;;;10.71;100.00;101341.59;4937098;29;20066;-77
2022/10/17 05:25:23;;;;;;;57.17;32.42;;;;;;;10.64;100.00;101331.22;4937317;29;20032;-77
2022/10/17 05:27:49;;;;;;;61.65;29.67;;;;;;;10.65;100.00;101326.31;4935799;29;20026;-77
2022/10/17 05:30:14;;;;;;;60.67;30.60;;;;;;;10.70;100.00;101343.66;4937114;29;20031;-79
2022/10/17 05:32:40;;;;;;;59.97;30.58;;;;;;;10.74;100.00;101355.75;4938130;29;20108;-79
2022/10/17 05:35:05;;;;;;;57.63;29.40;;;;;;;10.71;100.00;101345.25;4938030;29;20020;-79
2022/10/17 05:37:31;;;;;;;57.50;31.25;;;;;;;10.77;100.00;101348.31;4937023;29;20489;-79
2022/10/17 05:39:58;;;;;;;55.33;30.83;;;;;;;10.85;100.00;101361.03;4937928;29;20027;-80
2022/10/17 05:42:24;;;;;;;55.75;29.08;;;;;;;10.91;100.00;101367.75;4936493;29;20039;-79
2022/10/17 05:44:49;;;;;;;54.95;29.38;;;;;;;10.95;100.00;101352.03;4937794;29;20031;-79
2022/10/17 05:47:18;;;;;;;49.33;28.17;;;;;;;11.04;100.00;101373.38;4936337;29;20401;-80
2022/10/17 05:49:49;;;;;;;49.42;28.65;;;;;;;11.12;100.00;101371.84;4937398;29;20106;-79
2022/10/17 05:52:19;;;;;;;46.80;27.63;;;;;;;11.20;100.00;101378.88;4935811;29;20027;-80
2022/10/17 05:54:45;;;;;;;47.75;26.85;;;;;;;11.17;100.00;101366.28;4918694;29;20469;-79
2022/10/17 05:57:10;;;;;;;49.40;26.83;;;;;;;11.36;100.00;101388.00;4918566;29;20066;-80
2022/10/17 05:59:38;;;;;;;46.22;27.77;;;;;;;11.29;100.00;101365.38;4934413;29;20027;-79
2022/10/17 06:02:10;;;;;;;43.15;26.05;;;;;;;11.38;100.00;101370.34;4935377;29;20091;-80
2022/10/17 06:04:36;;;;;;;49.80;27.02;;;;;;;11.49;100.00;101379.28;4935652;29;20482;-78
2022/10/17 06:07:02;;;;;;;40.38;25.25;;;;;;;11.55;100.00;101390.91;4920151;29;20035;-79
2022/10/17 06:09:27;;;;;;;45.50;25.50;;;;;;;11.62;100.00;101390.59;4937433;29;20091;-79
2022/10/17 06:11:52;;;;;;;40.67;25.67;;;;;;;11.57;100.00;101374.03;4935390;29;20028;-78
2022/10/17 06:14:20;;;;;;;44.40;24.88;;;;;;;11.65;100.00;101384.72;4935767;29;20469;-79
2022/10/17 06:16:45;;;;;;;45.63;24.88;;;;;;;11.72;100.00;101395.88;4937023;29;20376;-79
2022/10/17 06:19:11;;;;;;;41.33;24.73;;;;;;;11.75;100.00;101394.94;4920520;29;20027;-80
2022/10/17 06:21:37;;;;;;;41.88;25.33;;;;;;;11.79;100.00;101401.31;4937302;29;20031;-78
2022/10/17 06:24:03;;;;;;;41.33;25.58;;;;;;;11.78;100.00;101387.44;4936988;29;20473;-77
2022/10/17 06:26:31;;;;;;;40.28;25.25;;;;;;;11.89;100.00;101402.09;4937153;29;20031;-77
2022/10/17 06:28:59;;;;;;;39.78;24.67;;;;;;;11.94;100.00;101410.06;4937048;29;20058;-78
2022/10/17 06:31:24;;;;;;;39.85;23.80;;;;;;;12.00;100.00;101410.25;4936071;29;20031;-77
2022/10/17 06:33:50;;;;;;;39.95;24.00;;;;;;;12.08;100.00;101420.09;4937269;29;20047;-79
2022/10/17 06:36:22;;;;;;;41.20;24.92;;;;;;;12.03;100.00;101392.09;4936724;29;20106;-76
2022/10/17 06:38:50;;;;;;;41.80;24.17;;;;;;;12.12;100.00;101404.34;4935838;29;20035;-78
2022/10/17 06:41:20;;;;;;;43.35;26.23;;;;;;;11.44;100.00;101291.19;4936878;29;20035;-78
2022/10/17 06:43:49;;;;;;;40.95;25.50;;;;;;;12.26;100.00;101395.09;4936675;29;20027;-78
2022/10/17 06:46:18;;;;;;;41.63;25.52;;;;;;;12.39;100.00;101409.31;4918961;29;20142;-77
2022/10/17 06:48:44;;;;;;;41.60;24.88;;;;;;;12.42;100.00;101416.94;4919701;29;20036;-78
2022/10/17 06:51:10;;;;;;;43.60;25.55;;;;;;;12.54;100.00;101421.75;4936697;29;20038;-77
2022/10/17 06:53:39;;;;;;;47.83;24.30;;;;;;;12.40;100.00;101393.72;4936538;29;20525;-78
2022/10/17 06:56:13;;;;;;;35.20;22.58;;;;;;;12.73;100.00;101421.69;4935272;29;20051;-80
2022/10/17 06:58:39;;;;;;;43.40;24.02;;;;;;;12.67;100.00;101404.34;4935262;29;20027;-76
2022/10/17 07:01:10;;;;;;;39.30;24.63;;;;;;;12.73;100.00;101396.69;4919298;29;20058;-78
2022/10/17 07:03:39;;;;;;;37.78;23.20;;;;;;;12.87;100.00;101398.09;4935072;29;20130;-81
2022/10/17 07:06:12;;;;;;;39.25;24.45;;;;;;;13.47;100.00;101395.94;4935723;29;20050;-80
2022/10/17 07:08:41;;;;;;;39.92;21.80;;;;;;;14.72;100.00;101442.81;4936494;29;20436;-79
2022/10/17 07:11:12;;;;;;;30.13;19.55;;;;;;;15.85;100.00;101429.78;4936252;29;20035;-79
2022/10/17 07:13:40;;;;;;;38.20;21.50;;;;;;;16.80;100.00;101439.59;4935618;29;20028;-82
2022/10/17 07:16:06;;;;;;;30.67;20.08;;;;;;;17.70;100.00;101421.75;4919866;29;20051;-79
2022/10/17 07:18:32;;;;;;;31.17;20.08;;;;;;;18.60;100.00;101429.59;4935178;29;20066;-81
2022/10/17 07:20:58;;;;;;;31.55;18.60;;;;;;;19.33;100.00;101434.19;4935152;29;20083;-80
2022/10/17 07:23:24;;;;;;;34.70;19.58;;;;;;;19.97;100.00;101423.56;4937373;29;20051;-78
2022/10/17 07:25:49;;;;;;;24.73;17.38;;;;;;;20.59;100.00;101427.00;4938872;29;20059;-79
2022/10/17 07:28:15;;;;;;;29.20;18.10;;;;;;;21.05;100.00;101432.00;4938950;29;20127;-81
2022/10/17 07:30:40;;;;;;;31.23;18.67;;;;;;;21.43;100.00;101428.03;4907985;29;20043;-80
2022/10/17 07:33:10;;;;;;;24.90;19.00;;;;;;;21.77;100.00;101434.34;4938932;29;20369;-82
2022/10/17 07:35:39;;;;;;;29.45;18.70;;;;;;;22.14;98.34;101444.50;4938790;29;20036;-82
2022/10/17 07:38:12;;;;;;;38.00;18.75;;;;;;;22.43;95.78;101437.81;4940050;29;20082;-79
2022/10/17 07:40:39;;;;;;;27.50;18.92;;;;;;;22.55;93.49;101427.59;4939679;29;20036;-80
2022/10/17 07:43:12;;;;;;;27.60;19.00;;;;;;;22.85;89.27;101447.84;4939828;29;20028;-82
2022/10/17 07:45:39;;;;;;;25.73;18.75;;;;;;;22.81;88.89;101418.22;4937890;29;20087;-82
2022/10/17 07:48:12;;;;;;;28.98;19.05;;;;;;;23.20;86.98;101452.66;4939553;29;20071;-81
2022/10/17 07:50:40;;;;;;;28.98;17.73;;;;;;;23.29;85.33;101437.63;4939951;29;20024;-80
2022/10/17 07:53:11;;;;;;;25.20;16.63;;;;;;;23.47;84.61;101454.28;4938411;29;20038;-82
2022/10/17 07:55:39;;;;;;;23.33;16.67;;;;;;;23.55;82.96;101452.34;4937579;29;20024;-82
2022/10/17 07:58:06;;;;;;;26.00;16.63;;;;;;;23.65;82.89;101459.34;4937906;29;20098;-83
2022/10/17 08:00:32;;;;;;;24.13;16.88;;;;;;;23.75;82.72;101448.00;4920604;29;20159;-83
2022/10/17 08:02:59;;;;;;;22.80;17.27;;;;;;;23.84;81.39;101450.50;4936016;29;20110;-83
2022/10/17 08:05:25;;;;;;;22.13;15.38;;;;;;;23.96;78.43;101466.44;4936050;29;20033;-83
2022/10/17 08:07:50;;;;;;;21.42;15.70;;;;;;;24.04;77.81;101466.59;4936128;29;20028;-82
2022/10/17 08:10:26;;;;;;;22.73;15.77;;;;;;;23.86;75.60;101438.22;4935999;29;20139;-83
2022/10/17 08:12:52;;;;;;;21.02;14.98;;;;;;;23.95;76.11;101464.88;4937283;29;20031;-84
2022/10/17 08:15:19;;;;;;;23.73;17.25;;;;;;;23.94;78.47;101462.53;4937395;29;20027;-83
2022/10/17 08:17:52;;;;;;;24.77;16.52;;;;;;;24.05;78.79;101453.56;4922544;29;20023;-81
2022/10/17 08:20:20;;;;;;;22.95;15.25;;;;;;;24.05;77.05;101465.25;4923051;29;20493;-82
2022/10/17 08:22:53;;;;;;;21.17;15.25;;;;;;;24.10;76.74;101458.50;4938185;29;20031;-82
2022/10/17 08:25:21;;;;;;;25.25;15.52;;;;;;;24.03;76.93;101462.88;4938160;29;20056;-82
2022/10/17 08:27:49;;;;;;;20.50;15.68;;;;;;;23.99;77.52;101461.63;4938261;29;20031;-83
2022/10/17 08:30:22;;;;;;;22.27;16.25;;;;;;;23.91;77.65;101455.66;4953554;29;20034;-82
2022/10/17 08:32:50;;;;;;;18.50;15.32;;;;;;;23.87;78.50;101457.34;4957485;28;20464;-82
2022/10/17 08:35:20;;;;;;;18.60;14.90;;;;;;;23.93;77.88;101461.72;4956584;28;20019;-81
2022/10/17 08:37:46;;;;;;;19.67;15.43;;;;;;;23.92;77.71;101448.47;4941659;29;20408;-82
2022/10/17 08:40:24;;;;;;;18.75;14.63;;;;;;;23.84;74.78;101447.56;4957946;28;20030;-82
2022/10/17 08:43:02;;;;;;;20.40;14.63;;;;;;;23.86;73.33;101458.69;4957382;29;20035;-82
2022/10/17 08:45:51;;;;;;;37.78;17.02;;;;;;;23.80;72.73;101459.56;4956235;29;20043;-83
2022/10/17 08:48:19;;;;;;;26.88;15.75;;;;;;;23.60;73.24;101462.34;4956956;29;20041;-82
2022/10/17 08:51:10;;;;;;;23.75;15.15;;;;;;;23.54;74.85;101456.56;4956561;29;20035;-82
2022/10/17 08:53:38;;;;;;;23.80;15.37;;;;;;;23.44;75.52;101452.50;4957732;28;20036;-81
2022/10/17 08:56:24;;;;;;;22.73;14.32;;;;;;;23.32;76.18;101439.44;4956836;29;20039;-82
2022/10/17 08:58:50;;;;;;;21.55;14.63;;;;;;;23.29;76.18;101440.56;4956484;29;20050;-83
2022/10/17 09:01:27;;;;;;;21.52;14.75;;;;;;;23.27;74.52;101446.94;4956466;29;20461;-81
2022/10/17 09:04:10;;;;;;;20.52;13.80;;;;;;;23.23;75.98;101445.69;4956513;29;20031;-82
2022/10/17 09:06:49;;;;;;;19.05;14.13;;;;;;;23.13;76.29;101427.03;4940567;29;20480;-81
2022/10/17 09:09:31;;;;;;;18.80;13.88;;;;;;;23.17;75.12;101436.22;4956657;29;20035;-81
2022/10/17 09:12:23;;;;;;;19.45;13.45;;;;;;;23.23;75.55;101431.91;4956688;29;20027;-81
2022/10/17 09:15:16;;;;;;;19.55;14.52;;;;;;;23.21;74.19;101446.22;4956506;29;20488;-81
2022/10/17 09:17:54;;;;;;;17.55;13.23;;;;;;;23.25;75.94;101435.06;4941932;29;20081;-82
2022/10/17 09:20:22;;;;;;;20.55;13.40;;;;;;;23.22;76.25;101438.28;4956621;29;20077;-81
2022/10/17 09:22:57;;;;;;;18.63;13.43;;;;;;;23.28;75.03;101433.94;4956066;29;20427;-82
2022/10/17 09:25:22;;;;;;;19.98;14.52;;;;;;;23.27;75.58;101437.41;4939958;29;20034;-81
2022/10/17 09:27:51;;;;;;;18.55;13.20;;;;;;;23.23;76.24;101423.13;4956221;29;20098;-82
2022/10/17 09:30:27;;;;;;;23.83;13.77;;;;;;;23.31;76.54;101432.03;4955508;29;20103;-83
2022/10/17 09:32:53;;;;;;;20.67;13.85;;;;;;;23.41;76.57;101435.34;4939557;29;20433;-82
2022/10/17 09:35:19;;;;;;;20.60;13.40;;;;;;;23.48;77.56;101437.56;4957114;28;20100;-80
2022/10/17 09:37:49;;;;;;;19.63;13.60;;;;;;;23.33;76.45;101406.78;4955313;29;20121;-83
2022/10/17 09:40:30;;;;;;;18.73;13.77;;;;;;;23.53;75.01;101433.78;4940150;29;20039;-83
2022/10/17 09:43:00;;;;;;;23.25;13.60;;;;;;;23.46;73.95;101432.28;4955419;29;20038;-80
2022/10/17 09:45:30;;;;;;;20.02;13.80;;;;;;;23.43;74.01;101444.31;4939249;28;20051;-80
2022/10/17 09:48:41;;;;;;;23.70;13.57;;;;;;;23.42;72.87;101439.81;4939398;29;20035;-81
2022/10/17 09:51:10;;;;;;;23.27;13.15;;;;;;;23.28;73.61;101427.31;4883067;29;20123;-82
2022/10/17 09:53:51;;;;;;;13.63;11.02;;;;;;;23.26;71.54;101432.94;4882069;29;20521;-81
2022/10/17 09:56:18;;;;;;;22.67;13.35;;;;;;;23.21;73.14;101433.81;4897572;29;20040;-81
2022/10/17 09:58:51;;;;;;;17.27;12.07;;;;;;;23.20;73.07;101435.94;4885509;29;20043;-81
2022/10/17 10:01:28;;;;;;;29.85;12.40;;;;;;;23.00;73.47;101394.91;4955207;29;20480;-81
2022/10/17 10:04:26;;;;;;;23.40;12.88;;;;;;;22.83;72.43;101401.75;4955049;29;20035;-81
2022/10/17 10:07:10;;;;;;;20.45;13.57;;;;;;;23.13;71.65;101436.56;4921910;29;20043;-81
2022/10/17 10:09:39;;;;;;;18.33;11.88;;;;;;;22.64;71.82;101371.84;4955303;29;20043;-81
2022/10/17 10:12:51;;;;;;;21.02;12.63;;;;;;;23.09;71.82;101441.16;4939026;29;20492;-82
2022/10/17 10:15:49;;;;;;;20.95;12.55;;;;;;;23.09;72.82;101430.28;4949147;28;20465;-81
2022/10/17 10:18:33;;;;;;;19.33;12.85;;;;;;;23.08;70.22;101440.34;4897238;29;20045;-82
2022/10/17 10:21:21;;;;;;;21.15;11.38;;;;;;;23.06;70.99;101437.22;4893203;29;20035;-82
2022/10/17 10:24:03;;;;;;;19.77;12.48;;;;;;;23.05;71.30;101438.56;4936044;29;20477;-82
2022/10/17 10:26:49;;;;;;;15.55;12.10;;;;;;;22.97;70.29;101434.69;4949652;29;20114;-80
2022/10/17 10:29:34;;;;;;;18.08;12.18;;;;;;;22.99;69.32;101440.75;4953956;28;20039;-82
2022/10/17 10:32:09;;;;;;;16.98;11.00;;;;;;;22.92;69.21;101441.38;4954874;29;20119;-78
2022/10/17 10:34:38;;;;;;;24.65;12.13;;;;;;;22.74;69.25;101440.03;4954834;29;20039;-80
2022/10/17 10:37:24;;;;;;;33.70;13.38;;;;;;;22.84;68.71;101444.13;4922254;29;20051;-81
2022/10/17 10:40:19;;;;;;;55.65;16.80;;;;;;;22.67;68.14;101434.06;4939729;29;20152;-82
2022/10/17 10:43:00;;;;;;;98.57;21.23;;;;;;;22.72;70.36;101433.97;4953400;29;20055;-81
2022/10/17 10:45:50;;;;;;;74.50;20.20;;;;;;;22.73;71.46;101437.66;4954426;29;20059;-80
2022/10/17 10:48:27;;;;;;;122.18;22.85;;;;;;;22.70;71.53;101425.00;4955700;28;20035;-81
2022/10/17 10:51:07;;;;;;;68.32;17.83;;;;;;;22.48;69.63;101410.72;4938502;29;20066;-77
2022/10/17 10:54:04;;;;;;;106.55;21.05;;;;;;;22.57;70.88;101421.22;4956175;28;20035;-78
2022/10/17 10:56:58;;;;;;;20.17;11.68;;;;;;;22.55;72.24;101420.97;4939314;29;20042;-87
2022/10/17 10:59:33;;;;;;;232.77;37.22;;;;;;;22.46;71.17;101419.25;4952300;29;20082;-82
2022/10/17 11:02:12;;;;;;;48.88;12.65;;;;;;;22.44;69.67;101419.00;4955972;28;20133;-81
2022/10/17 11:05:14;;;;;;;17.95;10.40;;;;;;;22.41;69.90;101418.00;4954565;29;20112;-81
2022/10/17 11:08:03;;;;;;;14.70;10.57;;;;;;;22.34;69.70;101414.91;4926618;29;20046;-82
2022/10/17 11:10:55;;;;;;;15.30;11.18;;;;;;;22.33;70.87;101410.41;4952682;29;20067;-81
2022/10/17 11:13:29;;;;;;;13.93;10.93;;;;;;;22.33;71.72;101408.28;4954915;29;20027;-82
2022/10/17 11:16:23;;;;;;;19.70;11.02;;;;;;;22.33;72.63;101398.75;4923163;29;20042;-82
2022/10/17 11:18:55;;;;;;;18.13;10.77;;;;;;;22.38;72.62;101395.78;4953680;29;20109;-82
2022/10/17 11:21:39;;;;;;;21.13;11.50;;;;;;;22.39;72.53;101387.81;4954011;29;20178;-80
2022/10/17 11:24:13;;;;;;;19.65;10.05;;;;;;;22.47;71.98;101391.69;4955423;28;20114;-78
2022/10/17 11:27:06;;;;;;;12.38;9.55;;;;;;;22.58;73.16;101390.72;4954270;29;20468;-77